Time;durP1;ratioP1;P1;durP2;ratioP2;P2;SDS_P1;SDS_P2;PMS_P1;PMS_P2;Temp;Humidity;BMP_temperature;BMP_pressure;BME280_temperature;BME280_humidity;BME280_pressure;Samples;Min_cycle;Max_cycle;Signal;HPM_P1;HPM_P2
2023/08/18 00:01:57;;;;;;;9.98;6.40;;;;;;;;;;5029819;28;20045;-60
2023/08/18 00:04:23;;;;;;;10.52;6.50;;;;;;;;;;5024341;28;20497;-60
2023/08/18 00:06:49;;;;;;;12.23;5.90;;;;;;;;;;5028317;28;20029;-60
2023/08/18 00:09:15;;;;;;;10.48;6.43;;;;;;;;;;5026268;28;20041;-60
2023/08/18 00:11:41;;;;;;;11.27;6.38;;;;;;;;;;5027653;28;20058;-59
2023/08/18 00:14:08;;;;;;;11.52;6.07;;;;;;;;;;5029683;28;20048;-59
2023/08/18 00:16:34;;;;;;;9.10;5.55;;;;;;;;;;5033967;28;20068;-59
2023/08/18 00:19:00;;;;;;;10.07;6.20;;;;;;;;;;5027985;28;20041;-59
2023/08/18 00:21:26;;;;;;;12.43;6.50;;;;;;;;;;5026547;28;20064;-59
2023/08/18 00:23:52;;;;;;;10.98;6.00;;;;;;;;;;5036824;28;20040;-60
2023/08/18 00:26:18;;;;;;;9.25;5.50;;;;;;;;;;5035794;28;20044;-60
2023/08/18 00:28:44;;;;;;;8.32;5.38;;;;;;;;;;5030361;28;20045;-60
2023/08/18 00:31:10;;;;;;;8.93;5.93;;;;;;;;;;5029770;28;20049;-60
2023/08/18 00:33:36;;;;;;;10.55;5.68;;;;;;;;;;5039105;28;20040;-60
2023/08/18 00:36:03;;;;;;;8.25;5.53;;;;;;;;;;5036228;28;20045;-60
2023/08/18 00:38:29;;;;;;;10.63;5.20;;;;;;;;;;5036383;28;20034;-60
2023/08/18 00:40:55;;;;;;;12.02;5.93;;;;;;;;;;5036444;28;20045;-60
2023/08/18 00:43:22;;;;;;;9.57;5.70;;;;;;;;;;5034541;28;20040;-60
2023/08/18 00:45:50;;;;;;;10.30;5.85;;;;;;;;;;5035559;28;20049;-60
2023/08/18 00:48:16;;;;;;;7.55;5.38;;;;;;;;;;5036105;28;20045;-60
2023/08/18 00:50:44;;;;;;;9.15;5.50;;;;;;;;;;5037625;28;20053;-60
2023/08/18 00:53:10;;;;;;;12.88;5.78;;;;;;;;;;5025424;28;20524;-60
2023/08/18 00:55:37;;;;;;;11.10;5.28;;;;;;;;;;5027943;28;20041;-59
2023/08/18 00:58:03;;;;;;;10.57;5.38;;;;;;;;;;5028804;28;20042;-59
2023/08/18 01:00:30;;;;;;;8.68;4.93;;;;;;;;;;5030819;28;20401;-59
2023/08/18 01:02:56;;;;;;;10.73;5.30;;;;;;;;;;5030921;28;20060;-60
2023/08/18 01:05:24;;;;;;;8.87;5.07;;;;;;;;;;5030936;28;20500;-59
2023/08/18 01:07:50;;;;;;;14.65;5.13;;;;;;;;;;5030580;28;20505;-60
2023/08/18 01:10:16;;;;;;;9.88;5.65;;;;;;;;;;5030983;28;20053;-59
2023/08/18 01:12:58;;;;;;;8.95;5.40;;;;;;;;;;5028165;28;20788;-59
2023/08/18 01:15:31;;;;;;;9.30;4.82;;;;;;;;;;5034513;28;20397;-60
2023/08/18 01:18:03;;;;;;;10.77;4.90;;;;;;;;;;5032914;28;20394;-60
2023/08/18 01:20:30;;;;;;;11.27;5.40;;;;;;;;;;5034250;28;20038;-60
2023/08/18 01:23:01;;;;;;;8.93;4.95;;;;;;;;;;5029246;28;20404;-60
2023/08/18 01:25:27;;;;;;;9.40;4.72;;;;;;;;;;5052412;28;20049;-60
2023/08/18 01:27:55;;;;;;;7.20;4.68;;;;;;;;;;5030024;28;20050;-60
2023/08/18 01:30:27;;;;;;;9.65;4.63;;;;;;;;;;5034041;28;20053;-60
2023/08/18 01:33:03;;;;;;;8.32;4.65;;;;;;;;;;5039450;28;20049;-60
2023/08/18 01:35:31;;;;;;;10.93;4.57;;;;;;;;;;5037703;28;20057;-59
2023/08/18 01:37:58;;;;;;;9.02;4.80;;;;;;;;;;5039216;28;20053;-59
2023/08/18 01:40:27;;;;;;;11.45;4.60;;;;;;;;;;5043122;28;20037;-59
2023/08/18 01:42:54;;;;;;;9.90;4.40;;;;;;;;;;5031821;28;20049;-59
2023/08/18 01:45:20;;;;;;;8.63;4.45;;;;;;;;;;5031666;28;20041;-59
2023/08/18 01:47:46;;;;;;;8.30;4.25;;;;;;;;;;5041343;28;20037;-58
2023/08/18 01:50:12;;;;;;;11.85;4.90;;;;;;;;;;5038217;28;20516;-59
2023/08/18 01:52:39;;;;;;;9.43;4.20;;;;;;;;;;5026894;28;20052;-59
2023/08/18 01:55:05;;;;;;;10.10;4.38;;;;;;;;;;5015381;28;20512;-59
2023/08/18 01:57:32;;;;;;;7.20;4.45;;;;;;;;;;5029582;28;20041;-59
2023/08/18 01:59:58;;;;;;;9.30;4.45;;;;;;;;;;5032272;28;20048;-59
2023/08/18 02:02:24;;;;;;;9.55;4.50;;;;;;;;;;5028454;28;20049;-59
2023/08/18 02:04:50;;;;;;;6.90;4.25;;;;;;;;;;5050435;28;20041;-60
2023/08/18 02:07:16;;;;;;;7.65;3.88;;;;;;;;;;5032574;28;20045;-59
2023/08/18 02:09:42;;;;;;;8.52;3.80;;;;;;;;;;5009897;28;20041;-59
2023/08/18 02:12:09;;;;;;;7.05;3.92;;;;;;;;;;5031380;28;20053;-60
2023/08/18 02:14:36;;;;;;;9.98;4.15;;;;;;;;;;5027308;28;20037;-59
2023/08/18 02:17:02;;;;;;;10.73;4.32;;;;;;;;;;5035100;28;20049;-60
2023/08/18 02:19:28;;;;;;;7.75;4.05;;;;;;;;;;5032154;28;20516;-60
2023/08/18 02:21:54;;;;;;;7.05;4.10;;;;;;;;;;5036327;28;20032;-60
2023/08/18 02:24:20;;;;;;;5.97;3.88;;;;;;;;;;5032947;28;20041;-59
2023/08/18 02:26:46;;;;;;;5.88;3.63;;;;;;;;;;5020563;28;20054;-59
2023/08/18 02:29:13;;;;;;;8.10;3.70;;;;;;;;;;5032508;28;20053;-59
2023/08/18 02:31:39;;;;;;;13.68;4.80;;;;;;;;;;5028840;28;20095;-59
2023/08/18 02:34:05;;;;;;;8.60;4.30;;;;;;;;;;5036250;28;20501;-59
2023/08/18 02:36:31;;;;;;;8.55;3.83;;;;;;;;;;5038395;28;20382;-60
2023/08/18 02:38:57;;;;;;;9.20;4.38;;;;;;;;;;5034486;28;20034;-59
2023/08/18 02:41:24;;;;;;;9.10;4.30;;;;;;;;;;5042790;28;20056;-59
2023/08/18 02:43:50;;;;;;;7.07;4.05;;;;;;;;;;5040403;28;20048;-59
2023/08/18 02:46:18;;;;;;;6.80;4.10;;;;;;;;;;5030330;28;20493;-59
2023/08/18 02:48:44;;;;;;;9.40;4.20;;;;;;;;;;5036405;28;20041;-60
2023/08/18 02:51:10;;;;;;;9.45;4.40;;;;;;;;;;5006440;28;20046;-60
2023/08/18 02:53:39;;;;;;;6.60;4.20;;;;;;;;;;5027311;28;20060;-59
2023/08/18 02:56:06;;;;;;;6.35;4.03;;;;;;;;;;5031697;28;20052;-60
2023/08/18 02:58:33;;;;;;;8.02;3.78;;;;;;;;;;5030369;28;20053;-59
2023/08/18 03:01:04;;;;;;;5.75;4.00;;;;;;;;;;5029636;28;20037;-59
2023/08/18 03:03:33;;;;;;;6.22;4.30;;;;;;;;;;5033249;28;20045;-59
2023/08/18 03:06:04;;;;;;;6.78;3.65;;;;;;;;;;5033284;28;20037;-59
2023/08/18 03:08:31;;;;;;;7.20;3.90;;;;;;;;;;5028784;28;20072;-59
2023/08/18 03:10:59;;;;;;;5.63;3.85;;;;;;;;;;5036880;28;20041;-59
2023/08/18 03:13:25;;;;;;;9.63;3.97;;;;;;;;;;5021056;28;20041;-58
2023/08/18 03:15:51;;;;;;;7.85;3.63;;;;;;;;;;5033361;28;20045;-59
2023/08/18 03:18:17;;;;;;;7.93;4.18;;;;;;;;;;5030331;28;20045;-61
2023/08/18 03:20:47;;;;;;;8.02;3.88;;;;;;;;;;5029667;28;20036;-60
2023/08/18 03:23:15;;;;;;;8.45;3.60;;;;;;;;;;5024645;28;20038;-60
2023/08/18 03:25:43;;;;;;;9.70;3.85;;;;;;;;;;5032028;28;20045;-59
2023/08/18 03:28:10;;;;;;;4.38;3.28;;;;;;;;;;5027895;28;20519;-59
2023/08/18 03:30:39;;;;;;;6.47;3.67;;;;;;;;;;5028452;28;20048;-60
2023/08/18 03:33:07;;;;;;;7.15;3.47;;;;;;;;;;5035326;28;20040;-60
2023/08/18 03:35:35;;;;;;;8.57;4.43;;;;;;;;;;5030520;28;20417;-60
2023/08/18 03:38:03;;;;;;;6.00;3.53;;;;;;;;;;5038162;28;20049;-60
2023/08/18 03:40:31;;;;;;;8.40;4.03;;;;;;;;;;5033942;28;20496;-60
2023/08/18 03:42:57;;;;;;;7.78;3.63;;;;;;;;;;5037588;28;20501;-60
2023/08/18 03:45:23;;;;;;;5.28;3.90;;;;;;;;;;5036155;28;20397;-60
2023/08/18 03:47:52;;;;;;;4.65;3.70;;;;;;;;;;5036832;28;20037;-60
2023/08/18 03:50:21;;;;;;;5.90;4.15;;;;;;;;;;5027963;28;20045;-61
2023/08/18 03:52:48;;;;;;;8.88;4.15;;;;;;;;;;5025705;28;20042;-60
2023/08/18 03:55:14;;;;;;;6.78;4.10;;;;;;;;;;5026444;28;20488;-60
2023/08/18 03:57:40;;;;;;;9.82;3.72;;;;;;;;;;5009855;28;20041;-60
2023/08/18 04:00:09;;;;;;;10.00;3.90;;;;;;;;;;5027834;28;20412;-60
2023/08/18 04:02:42;;;;;;;5.70;3.50;;;;;;;;;;5024680;28;20042;-60
2023/08/18 04:05:13;;;;;;;6.90;3.50;;;;;;;;;;5021693;28;20049;-60
2023/08/18 04:07:40;;;;;;;4.68;3.22;;;;;;;;;;5032183;28;20044;-60
2023/08/18 04:10:07;;;;;;;3.95;3.10;;;;;;;;;;5025427;28;20501;-60
2023/08/18 04:12:34;;;;;;;5.32;3.22;;;;;;;;;;5024253;28;20052;-61
2023/08/18 04:15:00;;;;;;;5.22;3.08;;;;;;;;;;5024765;28;20432;-60
2023/08/18 04:17:26;;;;;;;5.97;3.17;;;;;;;;;;5024649;28;20038;-60
2023/08/18 04:19:53;;;;;;;5.90;3.38;;;;;;;;;;5033120;28;20057;-60
2023/08/18 04:22:19;;;;;;;6.82;3.25;;;;;;;;;;5009243;28;20497;-60
2023/08/18 04:24:46;;;;;;;8.98;3.55;;;;;;;;;;5031642;28;20052;-60
2023/08/18 04:27:13;;;;;;;7.45;4.05;;;;;;;;;;5035492;28;20053;-61
2023/08/18 04:29:40;;;;;;;7.78;3.80;;;;;;;;;;5029511;28;20049;-60
2023/08/18 04:32:07;;;;;;;5.90;4.00;;;;;;;;;;5032233;28;20406;-60
2023/08/18 04:34:33;;;;;;;8.60;4.57;;;;;;;;;;5033630;28;20037;-60
2023/08/18 04:37:02;;;;;;;8.50;4.43;;;;;;;;;;5040407;28;20042;-60
2023/08/18 04:39:29;;;;;;;8.73;4.30;;;;;;;;;;5032520;28;20040;-60
2023/08/18 04:41:55;;;;;;;9.65;4.68;;;;;;;;;;5038935;28;20382;-60
2023/08/18 04:44:22;;;;;;;7.90;4.25;;;;;;;;;;5038882;28;20033;-60
2023/08/18 04:46:48;;;;;;;7.43;4.50;;;;;;;;;;5039346;28;20037;-60
2023/08/18 04:49:21;;;;;;;6.53;3.75;;;;;;;;;;5032366;28;20416;-60
2023/08/18 04:51:47;;;;;;;7.43;4.35;;;;;;;;;;5034115;28;20045;-60
2023/08/18 04:54:13;;;;;;;6.57;3.60;;;;;;;;;;5033263;28;20531;-60
2023/08/18 04:56:42;;;;;;;8.10;4.22;;;;;;;;;;5029787;28;20045;-60
2023/08/18 04:59:08;;;;;;;8.13;4.82;;;;;;;;;;5026449;28;20568;-59
2023/08/18 05:01:34;;;;;;;9.43;4.95;;;;;;;;;;5029751;28;20050;-59
2023/08/18 05:04:00;;;;;;;9.55;5.40;;;;;;;;;;5030412;28;20046;-59
2023/08/18 05:06:27;;;;;;;10.13;4.85;;;;;;;;;;5035723;28;20409;-59
2023/08/18 05:08:53;;;;;;;11.75;5.63;;;;;;;;;;5028341;28;20064;-60
2023/08/18 05:11:19;;;;;;;10.25;5.80;;;;;;;;;;5034099;28;20064;-60
2023/08/18 05:13:45;;;;;;;11.20;6.15;;;;;;;;;;5030559;28;20040;-58
2023/08/18 05:16:11;;;;;;;8.55;5.75;;;;;;;;;;5038048;28;20063;-60
2023/08/18 05:18:38;;;;;;;10.52;6.43;;;;;;;;;;5033747;28;20029;-60
2023/08/18 05:21:04;;;;;;;11.70;6.57;;;;;;;;;;5025171;28;20040;-60
2023/08/18 05:23:31;;;;;;;12.30;6.35;;;;;;;;;;5030799;28;20049;-59
2023/08/18 05:25:57;;;;;;;9.23;5.07;;;;;;;;;;5026067;28;20042;-59
2023/08/18 05:28:24;;;;;;;7.85;4.80;;;;;;;;;;5042787;28;20542;-59
2023/08/18 05:30:52;;;;;;;8.75;4.68;;;;;;;;;;5041954;28;20528;-59
2023/08/18 05:33:18;;;;;;;9.13;4.88;;;;;;;;;;5032005;28;20037;-59
2023/08/18 05:35:44;;;;;;;15.25;5.38;;;;;;;;;;5039648;28;20069;-60
2023/08/18 05:38:11;;;;;;;8.80;4.88;;;;;;;;;;5040203;28;20421;-60
2023/08/18 05:40:40;;;;;;;8.10;5.18;;;;;;;;;;5032227;28;20044;-60
2023/08/18 05:43:06;;;;;;;10.17;5.70;;;;;;;;;;5037419;28;20044;-59
2023/08/18 05:45:34;;;;;;;7.53;5.55;;;;;;;;;;5030883;28;20402;-60
2023/08/18 05:48:00;;;;;;;11.52;5.15;;;;;;;;;;5032336;28;20393;-59
2023/08/18 05:50:28;;;;;;;15.77;6.70;;;;;;;;;;5029866;28;20045;-60
2023/08/18 05:52:54;;;;;;;14.18;6.95;;;;;;;;;;5052036;28;20041;-59
2023/08/18 05:55:20;;;;;;;14.93;7.13;;;;;;;;;;5029706;28;20511;-59
2023/08/18 05:57:46;;;;;;;15.88;7.50;;;;;;;;;;5032797;28;20048;-59
2023/08/18 06:00:13;;;;;;;13.05;7.28;;;;;;;;;;5032118;28;20029;-60
2023/08/18 06:02:39;;;;;;;13.02;7.97;;;;;;;;;;5028251;28;20033;-60
2023/08/18 06:05:06;;;;;;;16.85;7.47;;;;;;;;;;5029378;28;20058;-60
2023/08/18 06:07:32;;;;;;;13.02;7.10;;;;;;;;;;5034544;28;20046;-61
2023/08/18 06:09:58;;;;;;;14.95;6.80;;;;;;;;;;5038573;28;20507;-60
2023/08/18 06:12:24;;;;;;;10.98;6.45;;;;;;;;;;5026559;28;20052;-59
2023/08/18 06:14:50;;;;;;;9.80;6.05;;;;;;;;;;5026255;28;20041;-59
2023/08/18 06:17:16;;;;;;;11.35;6.90;;;;;;;;;;5035817;28;20800;-60
2023/08/18 06:19:42;;;;;;;14.32;7.40;;;;;;;;;;5037556;28;20048;-60
2023/08/18 06:22:08;;;;;;;13.80;6.72;;;;;;;;;;5022258;28;20037;-60
2023/08/18 06:24:34;;;;;;;15.45;7.95;;;;;;;;;;5027787;28;20050;-60
2023/08/18 06:27:01;;;;;;;16.02;8.88;;;;;;;;;;5036861;28;20034;-60
2023/08/18 06:29:27;;;;;;;12.93;7.63;;;;;;;;;;5036289;28;20037;-60
2023/08/18 06:31:53;;;;;;;11.90;6.78;;;;;;;;;;5040825;28;20063;-60
2023/08/18 06:34:19;;;;;;;10.77;6.72;;;;;;;;;;5038518;28;20504;-59
2023/08/18 06:36:45;;;;;;;10.20;6.70;;;;;;;;;;5038474;28;20045;-60
2023/08/18 06:39:11;;;;;;;15.00;6.68;;;;;;;;;;5026115;28;20444;-60
2023/08/18 06:41:39;;;;;;;12.20;6.80;;;;;;;;;;5036532;28;20046;-61
2023/08/18 06:44:05;;;;;;;12.43;6.38;;;;;;;;;;5037321;28;20064;-60
2023/08/18 06:46:31;;;;;;;10.00;6.50;;;;;;;;;;5032999;28;20400;-59
2023/08/18 06:48:57;;;;;;;11.57;6.43;;;;;;;;;;5032422;28;20042;-61
2023/08/18 06:51:24;;;;;;;9.63;6.50;;;;;;;;;;5028453;28;20705;-60
2023/08/18 06:53:50;;;;;;;13.70;6.82;;;;;;;;;;5024800;28;20065;-60
2023/08/18 06:56:16;;;;;;;8.50;6.55;;;;;;;;;;5033849;28;20060;-60
2023/08/18 06:58:42;;;;;;;11.55;6.25;;;;;;;;;;5035594;28;20049;-60
2023/08/18 07:01:08;;;;;;;13.02;6.40;;;;;;;;;;5030291;28;20037;-60
2023/08/18 07:03:34;;;;;;;13.57;6.25;;;;;;;;;;5025256;28;20049;-61
2023/08/18 07:06:00;;;;;;;12.10;6.15;;;;;;;;;;5030569;28;20025;-61
2023/08/18 07:08:26;;;;;;;11.63;6.15;;;;;;;;;;5027472;28;20033;-61
2023/08/18 07:10:52;;;;;;;11.40;6.40;;;;;;;;;;5027152;28;20033;-60
2023/08/18 07:13:21;;;;;;;7.78;5.90;;;;;;;;;;5030885;28;20049;-60
2023/08/18 07:15:47;;;;;;;11.65;5.72;;;;;;;;;;5029968;28;20502;-61
2023/08/18 07:18:13;;;;;;;10.15;6.30;;;;;;;;;;5028598;28;20037;-61
2023/08/18 07:20:42;;;;;;;12.00;6.25;;;;;;;;;;5033155;28;20053;-60
2023/08/18 07:23:08;;;;;;;10.65;6.50;;;;;;;;;;5024227;28;20409;-60
2023/08/18 07:25:34;;;;;;;10.43;5.88;;;;;;;;;;5030659;28;20056;-60
2023/08/18 07:28:00;;;;;;;9.98;6.60;;;;;;;;;;5031476;28;20509;-60
2023/08/18 07:30:26;;;;;;;9.93;6.13;;;;;;;;;;5042571;28;20060;-61
2023/08/18 07:32:54;;;;;;;10.48;6.13;;;;;;;;;;5030836;28;20056;-61
2023/08/18 07:35:20;;;;;;;10.02;6.07;;;;;;;;;;5038845;28;20042;-61
2023/08/18 07:37:46;;;;;;;10.38;6.35;;;;;;;;;;5031545;28;20053;-60
2023/08/18 07:40:12;;;;;;;12.45;5.90;;;;;;;;;;5033045;28;20044;-60
2023/08/18 07:42:39;;;;;;;13.57;6.15;;;;;;;;;;5030906;28;20033;-59
2023/08/18 07:45:06;;;;;;;11.77;5.85;;;;;;;;;;5028781;28;20064;-60
2023/08/18 07:47:34;;;;;;;12.23;5.97;;;;;;;;;;5028071;28;20045;-59
2023/08/18 07:50:00;;;;;;;11.77;5.93;;;;;;;;;;5032439;28;20036;-59
2023/08/18 07:52:26;;;;;;;10.65;5.80;;;;;;;;;;5029535;28;20045;-61
2023/08/18 07:54:52;;;;;;;10.50;6.07;;;;;;;;;;5030755;28;20057;-59
2023/08/18 07:57:18;;;;;;;9.52;6.20;;;;;;;;;;5031512;28;20053;-59
2023/08/18 07:59:44;;;;;;;11.20;6.25;;;;;;;;;;5029074;28;20057;-59
2023/08/18 08:02:10;;;;;;;8.82;5.95;;;;;;;;;;5028884;28;20408;-59
2023/08/18 08:04:37;;;;;;;10.45;6.45;;;;;;;;;;5033859;28;20492;-59
2023/08/18 08:07:04;;;;;;;8.52;6.18;;;;;;;;;;5028273;28;20030;-59
2023/08/18 08:09:31;;;;;;;9.60;6.20;;;;;;;;;;5030410;28;20032;-59
2023/08/18 08:11:57;;;;;;;9.35;6.15;;;;;;;;;;5026366;28;20528;-60
2023/08/18 08:14:23;;;;;;;7.40;5.65;;;;;;;;;;5023091;28;20040;-60
2023/08/18 08:16:49;;;;;;;9.70;5.32;;;;;;;;;;5023839;28;20509;-60
2023/08/18 08:19:15;;;;;;;10.68;6.00;;;;;;;;;;5036436;28;20037;-60
2023/08/18 08:21:41;;;;;;;9.80;5.90;;;;;;;;;;5029628;28;20048;-59
2023/08/18 08:24:07;;;;;;;10.77;5.75;;;;;;;;;;5022635;28;20042;-59
2023/08/18 08:26:34;;;;;;;9.57;5.57;;;;;;;;;;5037173;28;20033;-60
2023/08/18 08:29:00;;;;;;;9.18;5.65;;;;;;;;;;5037133;28;20041;-60
2023/08/18 08:31:26;;;;;;;10.27;6.40;;;;;;;;;;5037051;28;20030;-60
2023/08/18 08:33:53;;;;;;;9.80;6.57;;;;;;;;;;5027407;28;20401;-60
2023/08/18 08:36:19;;;;;;;17.52;5.70;;;;;;;;;;5030899;28;20040;-59
2023/08/18 08:38:45;;;;;;;13.85;5.45;;;;;;;;;;5036571;28;20508;-60
2023/08/18 08:41:11;;;;;;;13.18;5.00;;;;;;;;;;5036611;28;20056;-60
2023/08/18 08:43:37;;;;;;;9.50;4.97;;;;;;;;;;5028590;28;20038;-60
2023/08/18 08:46:04;;;;;;;7.40;4.82;;;;;;;;;;5026821;28;20038;-60
2023/08/18 08:48:36;;;;;;;10.13;5.13;;;;;;;;;;5030312;28;20409;-61
2023/08/18 08:51:11;;;;;;;12.32;5.30;;;;;;;;;;5029615;28;20033;-60
2023/08/18 08:53:39;;;;;;;8.48;5.25;;;;;;;;;;5029295;28;20038;-60
2023/08/18 08:56:07;;;;;;;10.07;5.55;;;;;;;;;;5030338;28;20060;-60
2023/08/18 08:58:34;;;;;;;8.55;4.72;;;;;;;;;;5032910;28;20520;-60
2023/08/18 09:01:01;;;;;;;9.50;4.63;;;;;;;;;;5026291;28;20041;-60
2023/08/18 09:03:30;;;;;;;8.38;4.70;;;;;;;;;;5011604;28;20041;-61
2023/08/18 09:05:57;;;;;;;5.90;4.30;;;;;;;;;;5026796;28;20486;-60
2023/08/18 09:08:23;;;;;;;12.63;4.50;;;;;;;;;;5034213;28;20521;-62
2023/08/18 09:10:50;;;;;;;9.73;4.95;;;;;;;;;;5024758;28;20050;-60
2023/08/18 09:13:17;;;;;;;7.00;4.07;;;;;;;;;;5029916;28;20041;-62
2023/08/18 09:15:44;;;;;;;8.18;4.38;;;;;;;;;;5035672;28;20050;-61
2023/08/18 09:18:14;;;;;;;12.13;4.63;;;;;;;;;;5022053;28;20053;-61
2023/08/18 09:20:42;;;;;;;8.32;3.85;;;;;;;;;;5036027;28;20053;-61
2023/08/18 09:23:09;;;;;;;8.40;3.90;;;;;;;;;;5031435;28;20041;-61
2023/08/18 09:25:35;;;;;;;8.35;3.17;;;;;;;;;;5041122;28;20045;-60
2023/08/18 09:28:03;;;;;;;7.65;2.58;;;;;;;;;;5033857;28;20034;-60
2023/08/18 09:30:33;;;;;;;4.40;2.80;;;;;;;;;;5037236;28;20366;-61
2023/08/18 09:33:03;;;;;;;9.00;2.63;;;;;;;;;;5038554;28;20040;-60
2023/08/18 09:35:36;;;;;;;9.18;2.60;;;;;;;;;;5041479;28;20044;-61
2023/08/18 09:38:02;;;;;;;6.72;2.50;;;;;;;;;;5035797;28;20041;-60
2023/08/18 09:40:29;;;;;;;5.50;2.28;;;;;;;;;;5040248;28;20049;-60
2023/08/18 09:42:55;;;;;;;5.75;2.25;;;;;;;;;;5030456;28;20034;-61
2023/08/18 09:45:23;;;;;;;5.85;2.55;;;;;;;;;;5033381;28;20033;-60
2023/08/18 09:47:57;;;;;;;4.15;2.53;;;;;;;;;;5032444;28;20404;-60
2023/08/18 09:50:27;;;;;;;4.18;2.10;;;;;;;;;;5029877;28;20053;-59
2023/08/18 09:52:56;;;;;;;8.13;2.65;;;;;;;;;;5032176;28;20113;-60
2023/08/18 09:55:38;;;;;;;4.57;2.90;;;;;;;;;;5031558;28;20689;-60
2023/08/18 09:58:10;;;;;;;7.28;3.00;;;;;;;;;;5042316;28;20054;-60
2023/08/18 10:00:41;;;;;;;8.48;3.30;;;;;;;;;;5031560;28;20517;-60
2023/08/18 10:03:11;;;;;;;8.05;2.78;;;;;;;;;;5035009;28;20030;-60
2023/08/18 10:05:37;;;;;;;4.80;2.70;;;;;;;;;;5031260;28;20429;-61
2023/08/18 10:08:05;;;;;;;6.28;2.25;;;;;;;;;;5033113;28;20037;-60
2023/08/18 10:10:31;;;;;;;4.70;2.33;;;;;;;;;;5033483;28;20045;-61
2023/08/18 10:12:58;;;;;;;5.15;2.13;;;;;;;;;;5025384;28;20037;-62
2023/08/18 10:15:24;;;;;;;6.05;2.33;;;;;;;;;;5027760;28;20042;-60
2023/08/18 10:17:51;;;;;;;4.32;2.20;;;;;;;;;;5027763;28;20048;-61
2023/08/18 10:20:17;;;;;;;4.57;2.13;;;;;;;;;;5022456;28;20529;-60
2023/08/18 10:22:43;;;;;;;7.10;2.20;;;;;;;;;;5034401;28;20056;-62
2023/08/18 10:25:09;;;;;;;5.97;2.05;;;;;;;;;;5033805;28;20048;-60
2023/08/18 10:27:38;;;;;;;6.97;2.70;;;;;;;;;;5042533;28;20497;-61
2023/08/18 10:30:07;;;;;;;6.03;2.80;;;;;;;;;;5033747;28;20041;-61
2023/08/18 10:32:33;;;;;;;4.93;2.55;;;;;;;;;;5029091;28;20056;-60
2023/08/18 10:35:27;;;;;;;5.93;2.30;;;;;;;;;;5030947;28;20045;-61
2023/08/18 10:38:01;;;;;;;5.70;2.30;;;;;;;;;;5038827;28;20053;-61
2023/08/18 10:40:35;;;;;;;5.93;2.45;;;;;;;;;;5025966;28;20552;-61
2023/08/18 10:43:12;;;;;;;4.78;2.55;;;;;;;;;;5030170;28;20057;-62
2023/08/18 10:45:42;;;;;;;5.57;2.50;;;;;;;;;;5026923;28;20524;-61
2023/08/18 10:48:10;;;;;;;5.38;2.28;;;;;;;;;;5032923;28;20040;-61
2023/08/18 10:50:38;;;;;;;4.95;2.33;;;;;;;;;;5029200;28;20420;-61
2023/08/18 10:53:05;;;;;;;7.78;2.28;;;;;;;;;;5034039;28;20052;-61
2023/08/18 10:55:31;;;;;;;3.95;2.45;;;;;;;;;;5032288;28;20394;-60
2023/08/18 10:57:58;;;;;;;6.72;2.22;;;;;;;;;;5029936;28;20050;-61
2023/08/18 11:00:24;;;;;;;6.10;2.20;;;;;;;;;;5030039;28;20053;-62
2023/08/18 11:02:51;;;;;;;4.82;2.00;;;;;;;;;;5031774;28;20484;-61
2023/08/18 11:05:19;;;;;;;5.25;2.22;;;;;;;;;;5029980;28;20056;-61
2023/08/18 11:07:46;;;;;;;7.18;2.47;;;;;;;;;;5027211;28;20033;-61
2023/08/18 11:10:23;;;;;;;3.00;2.10;;;;;;;;;;5033031;28;20489;-61
2023/08/18 11:12:52;;;;;;;4.07;2.13;;;;;;;;;;5029247;28;20033;-61
2023/08/18 11:15:20;;;;;;;3.90;1.98;;;;;;;;;;5028421;28;20065;-62
2023/08/18 11:17:46;;;;;;;5.05;1.92;;;;;;;;;;5020363;28;20033;-61
2023/08/18 11:20:13;;;;;;;6.32;2.25;;;;;;;;;;5019484;28;20048;-61
2023/08/18 11:22:45;;;;;;;5.28;2.10;;;;;;;;;;5040461;28;20492;-61
2023/08/18 11:25:11;;;;;;;3.38;1.85;;;;;;;;;;5036551;28;20060;-60
2023/08/18 11:27:41;;;;;;;4.40;1.67;;;;;;;;;;5039141;28;20041;-62
2023/08/18 11:30:15;;;;;;;5.32;1.75;;;;;;;;;;5039517;28;20034;-61
2023/08/18 11:32:42;;;;;;;5.00;1.80;;;;;;;;;;5032033;28;20045;-61
2023/08/18 11:35:10;;;;;;;4.65;1.70;;;;;;;;;;5029308;28;20041;-61
2023/08/18 11:37:44;;;;;;;5.53;2.00;;;;;;;;;;5033195;28;20412;-62
2023/08/18 11:40:12;;;;;;;7.40;1.77;;;;;;;;;;5029792;28;20396;-62
2023/08/18 11:42:42;;;;;;;6.85;1.65;;;;;;;;;;5027494;28;20520;-62
2023/08/18 11:45:11;;;;;;;2.72;1.42;;;;;;;;;;5028182;28;20041;-62
2023/08/18 11:47:38;;;;;;;4.47;1.88;;;;;;;;;;5032331;28;20489;-62
2023/08/18 11:50:06;;;;;;;3.00;1.65;;;;;;;;;;5035557;28;20037;-62
2023/08/18 11:52:43;;;;;;;6.32;2.03;;;;;;;;;;5028512;28;20041;-61
2023/08/18 11:55:11;;;;;;;4.47;1.80;;;;;;;;;;5023263;28;20445;-61
2023/08/18 11:57:45;;;;;;;5.07;1.92;;;;;;;;;;5026290;28;20040;-62
2023/08/18 12:00:13;;;;;;;3.83;1.80;;;;;;;;;;5026007;28;20044;-61
2023/08/18 12:02:47;;;;;;;6.03;1.80;;;;;;;;;;5028609;28;20037;-62
2023/08/18 12:05:21;;;;;;;5.90;2.35;;;;;;;;;;5023954;28;20049;-62
2023/08/18 12:07:54;;;;;;;4.72;1.80;;;;;;;;;;5024450;28;20049;-62
2023/08/18 12:10:21;;;;;;;4.95;2.10;;;;;;;;;;5032515;28;20059;-61
2023/08/18 12:12:51;;;;;;;6.15;1.88;;;;;;;;;;5031927;28;20029;-61
2023/08/18 12:15:17;;;;;;;4.30;1.73;;;;;;;;;;5024692;28;20045;-62
2023/08/18 12:17:43;;;;;;;5.03;1.73;;;;;;;;;;5032061;28;20033;-61
2023/08/18 12:20:10;;;;;;;5.53;1.75;;;;;;;;;;5027012;28;20044;-62
2023/08/18 12:22:36;;;;;;;8.88;2.00;;;;;;;;;;5037243;28;20054;-61
2023/08/18 12:25:05;;;;;;;8.30;2.00;;;;;;;;;;5036734;28;20033;-61
2023/08/18 12:27:33;;;;;;;6.63;1.95;;;;;;;;;;5030834;28;20647;-61
2023/08/18 12:30:01;;;;;;;4.15;1.90;;;;;;;;;;5028018;28;20050;-61
2023/08/18 12:32:27;;;;;;;4.40;1.73;;;;;;;;;;5035683;28;20348;-62
2023/08/18 12:34:53;;;;;;;4.00;2.00;;;;;;;;;;5028785;28;20076;-61
2023/08/18 12:37:20;;;;;;;4.85;1.60;;;;;;;;;;5028423;28;20057;-61
2023/08/18 12:39:47;;;;;;;5.43;1.55;;;;;;;;;;5025676;28;20050;-61
2023/08/18 12:42:13;;;;;;;3.92;2.00;;;;;;;;;;5027420;28;20394;-61
2023/08/18 12:44:39;;;;;;;4.30;1.95;;;;;;;;;;5027490;28;20050;-62
2023/08/18 12:47:06;;;;;;;7.57;2.03;;;;;;;;;;5030222;28;20047;-62
2023/08/18 12:49:33;;;;;;;4.20;1.90;;;;;;;;;;5027849;28;20501;-62
2023/08/18 12:52:00;;;;;;;5.22;1.60;;;;;;;;;;5032359;28;20457;-62
2023/08/18 12:54:28;;;;;;;6.75;1.88;;;;;;;;;;5028151;28;20048;-62
2023/08/18 12:56:55;;;;;;;6.85;1.80;;;;;;;;;;5033916;28;20416;-63
2023/08/18 12:59:21;;;;;;;11.68;2.05;;;;;;;;;;5032447;28;20037;-62
2023/08/18 13:01:47;;;;;;;4.97;1.70;;;;;;;;;;5031975;28;20042;-62
2023/08/18 13:04:14;;;;;;;7.65;1.60;;;;;;;;;;5033375;28;20033;-62
2023/08/18 13:06:40;;;;;;;3.00;1.70;;;;;;;;;;5027887;28;20049;-62
2023/08/18 13:09:06;;;;;;;5.70;2.30;;;;;;;;;;5032240;28;20493;-62
2023/08/18 13:11:33;;;;;;;7.00;2.00;;;;;;;;;;5039379;28;20041;-60
2023/08/18 13:13:59;;;;;;;5.97;2.00;;;;;;;;;;5031692;28;20073;-62
2023/08/18 13:16:27;;;;;;;7.00;1.92;;;;;;;;;;5033557;28;20531;-62
2023/08/18 13:18:54;;;;;;;7.93;1.80;;;;;;;;;;5024249;28;20033;-63
2023/08/18 13:21:20;;;;;;;8.75;1.77;;;;;;;;;;5040467;28;20049;-62
2023/08/18 13:23:46;;;;;;;6.38;2.35;;;;;;;;;;5039297;28;20041;-62
2023/08/18 13:26:12;;;;;;;7.65;2.15;;;;;;;;;;5038780;28;20108;-61
2023/08/18 13:28:38;;;;;;;6.80;1.80;;;;;;;;;;5032844;28;20041;-62
2023/08/18 13:31:04;;;;;;;5.95;2.13;;;;;;;;;;5031815;28;20046;-64
2023/08/18 13:33:30;;;;;;;5.75;2.08;;;;;;;;;;5030930;28;20046;-62
2023/08/18 13:35:57;;;;;;;6.70;1.75;;;;;;;;;;5039737;28;20416;-61
2023/08/18 13:38:23;;;;;;;5.00;2.10;;;;;;;;;;5033915;28;20038;-62
2023/08/18 13:40:49;;;;;;;7.13;1.70;;;;;;;;;;5030487;28;20393;-61
2023/08/18 13:43:15;;;;;;;5.53;1.75;;;;;;;;;;5033935;28;20061;-62
2023/08/18 13:45:41;;;;;;;7.60;2.08;;;;;;;;;;5033511;28;20053;-63
2023/08/18 13:48:09;;;;;;;6.70;1.85;;;;;;;;;;5029172;28;20041;-62
2023/08/18 13:50:35;;;;;;;5.63;1.97;;;;;;;;;;5032894;28;20041;-62
2023/08/18 13:53:01;;;;;;;7.28;2.35;;;;;;;;;;5028545;28;20049;-62
2023/08/18 13:55:27;;;;;;;6.35;1.70;;;;;;;;;;5028414;28;20041;-62
2023/08/18 13:57:54;;;;;;;9.30;1.85;;;;;;;;;;5030119;28;20037;-62
2023/08/18 14:00:20;;;;;;;4.03;1.80;;;;;;;;;;5036613;28;20041;-63
2023/08/18 14:02:46;;;;;;;4.78;1.60;;;;;;;;;;5035067;28;20041;-62
2023/08/18 14:05:18;;;;;;;4.53;1.83;;;;;;;;;;5033963;28;20049;-62
2023/08/18 14:07:45;;;;;;;6.93;2.05;;;;;;;;;;5026839;28;20053;-62
2023/08/18 14:10:11;;;;;;;6.72;2.33;;;;;;;;;;5045431;28;20428;-62
2023/08/18 14:12:37;;;;;;;6.05;2.03;;;;;;;;;;5031417;28;20053;-62
2023/08/18 14:15:04;;;;;;;6.43;1.80;;;;;;;;;;5037224;28;20045;-62
2023/08/18 14:17:49;;;;;;;8.20;2.35;;;;;;;;;;5027798;28;20053;-62
2023/08/18 14:20:19;;;;;;;6.15;2.38;;;;;;;;;;5030963;28;20037;-62
2023/08/18 14:22:50;;;;;;;8.10;2.08;;;;;;;;;;5039456;28;20504;-62
2023/08/18 14:25:20;;;;;;;11.48;2.50;;;;;;;;;;5032309;28;20053;-63
2023/08/18 14:27:48;;;;;;;7.00;2.63;;;;;;;;;;5035876;28;20060;-63
2023/08/18 14:30:14;;;;;;;7.70;2.45;;;;;;;;;;5030878;28;20497;-62
2023/08/18 14:32:41;;;;;;;4.97;2.00;;;;;;;;;;5037562;28;20033;-62
2023/08/18 14:35:08;;;;;;;5.10;2.22;;;;;;;;;;5041188;28;20045;-62
2023/08/18 14:37:37;;;;;;;5.37;2.23;;;;;;;;;;5030145;28;20042;-61
2023/08/18 14:40:06;;;;;;;9.55;2.63;;;;;;;;;;5033229;28;20307;-61